Tracyton, WA (98393)

5:14 AM PST on February 13, 2016 (GMT -0800)
McWilliams Ct Area | | Change Station
CLOSE
Current Station
Personal Weather Station
Location: Bremerton, WA
Elevation: 171 ft
Nearby Weather Stations

Elev 171 ft 47.62 °N, 122.64 °W | Updated 25 seconds ago

Overcast
Overcast
43.5 °F
Feels Like 44 °F
N
0.0
Wind Variable Wind from ENE
Gusts 0.0 mph

Today
High -- | Low -- °F
--% Chance of Precip.
Yesterday
High -- | Low -- °F
Precip. -- in
Pressure 30.29 in
Visibility 10.0 miles
Clouds Mostly Cloudy 900 ft
Overcast 1400 ft
Windchill 44 °F
Dew Point 42 °F
Humidity 95%
Rainfall 0.00 in
Snow Depth Not available.
7:20 AM 5:30 PM
Waxing Crescent, 30% visible
METAR KPWT 131255Z AUTO 18009KT 10SM BKN009 OVC014 07/06 A3029 RMK AO1
Pressure 30.29 in
Visibility 10.0 miles
Clouds Mostly Cloudy 900 ft
Overcast 1400 ft
Windchill 44 °F
Dew Point 42 °F
Humidity 95%
Rainfall 0.00 in
Snow Depth Not available.
7:20 AM 5:30 PM
Waxing Crescent, 30% visible
METAR KPWT 131255Z AUTO 18009KT 10SM BKN009 OVC014 07/06 A3029 RMK AO1

10-Day Weather Forecast

Almanac

Astronomy

Feb. 13, 2016 Rise Set
Actual Time
Civil Twilight
Nautical Twilight
Astronomical Twilight
Moon
Length of Visible Light
Length of Day
Tomorrow will be .
, % of the Moon is Illuminated

Today's Extremes

State Highs State Lows

Community

WunderPhotos

Upload Photos

1,892,545 photos uploaded!

WunderBlog® & News

Nearby

Air Quality

  Air Quality AQ Index Pollutant
Not available.

Snow Depth

Station Depth Elevation

Earthquake Activity

City Distance Mag. Time & Date
Minimum magnitude displayed is 2.5.

Coastal Water Temperatures

Place Temperature

Stations

Nearby Weather Stations

Station Location Temp. Windchill Dew Point Humidity Wind Precip. Elev Updated Type
                   

Watches & Warnings

There are currently no watches in effect.